createdAt,value
2022-12-22T00:02:37.050Z,65.57
2022-12-22T00:05:34.925Z,64.69
2022-12-22T00:08:20.195Z,64.30
2022-12-22T00:11:05.450Z,63.96
2022-12-22T00:13:51.157Z,64.40
2022-12-22T00:16:36.980Z,63.47
2022-12-22T00:19:30.340Z,64.29
2022-12-22T00:22:19.669Z,65.17
2022-12-22T00:25:04.930Z,63.62
2022-12-22T00:27:50.522Z,63.46
2022-12-22T00:30:36.638Z,64.25
2022-12-22T00:33:24.435Z,65.55
2022-12-22T00:36:09.987Z,64.58
2022-12-22T00:38:55.287Z,65.15
2022-12-22T00:41:40.433Z,65.44
2022-12-22T00:44:25.467Z,65.07
2022-12-22T00:47:10.759Z,65.23
2022-12-22T00:49:56.036Z,65.54
2022-12-22T00:52:42.183Z,65.74
2022-12-22T00:55:36.112Z,65.24
2022-12-22T00:58:39.947Z,66.53
2022-12-22T01:01:25.015Z,65.83
2022-12-22T01:04:10.427Z,65.86
2022-12-22T01:06:56.795Z,67.19
2022-12-22T01:09:42.714Z,65.11
2022-12-22T01:12:37.731Z,64.39
2022-12-22T01:15:29.989Z,65.46
2022-12-22T01:18:15.310Z,64.29
2022-12-22T01:21:00.556Z,64.17
2022-12-22T01:23:46.789Z,64.08
2022-12-22T01:26:32.396Z,64.29
2022-12-22T01:29:17.865Z,65.17
2022-12-22T01:32:03.144Z,65.27
2022-12-22T01:34:48.326Z,63.79
2022-12-22T01:37:33.685Z,63.92
2022-12-22T01:40:18.929Z,63.55
2022-12-22T01:43:04.266Z,63.53
2022-12-22T01:45:51.984Z,64.61
2022-12-22T01:48:47.666Z,64.00
2022-12-22T01:51:38.516Z,64.06
2022-12-22T01:54:25.157Z,64.75
2022-12-22T01:57:10.461Z,64.87
2022-12-22T01:59:56.097Z,65.73
2022-12-22T02:02:42.209Z,66.02
2022-12-22T02:05:29.995Z,65.94
2022-12-22T02:08:45.980Z,64.90
2022-12-22T02:12:03.041Z,64.95
2022-12-22T02:15:04.621Z,65.42
2022-12-22T02:18:21.626Z,65.07
2022-12-22T02:21:21.738Z,64.06
2022-12-22T02:24:31.669Z,64.57
2022-12-22T02:27:18.797Z,63.96
2022-12-22T02:30:11.546Z,63.80
2022-12-22T02:33:06.920Z,64.52
2022-12-22T02:36:10.060Z,64.81
2022-12-22T02:39:11.143Z,65.01
2022-12-22T02:42:15.428Z,64.91
2022-12-22T02:45:31.643Z,64.74
2022-12-22T02:48:22.428Z,65.88
2022-12-22T02:51:14.732Z,66.25
2022-12-22T02:54:00.031Z,66.84
2022-12-22T02:56:45.665Z,66.69
2022-12-22T02:59:31.109Z,67.06
2022-12-22T03:02:17.000Z,66.12
2022-12-22T03:05:02.076Z,65.63
2022-12-22T03:07:47.221Z,67.95
2022-12-22T03:10:32.869Z,65.05
2022-12-22T03:13:18.717Z,63.75
2022-12-22T03:16:04.621Z,64.20
2022-12-22T03:18:49.935Z,63.83
2022-12-22T03:21:35.584Z,64.55
2022-12-22T03:24:20.765Z,64.47
2022-12-22T03:26:47.574Z,65.20
2022-12-22T03:29:14.122Z,65.69
2022-12-22T03:31:40.834Z,66.36
2022-12-22T03:34:07.443Z,65.09
2022-12-22T03:36:34.019Z,64.87
2022-12-22T03:39:00.547Z,65.78
2022-12-22T03:41:45.720Z,65.72
2022-12-22T03:44:31.631Z,65.23
2022-12-22T03:46:58.360Z,64.06
2022-12-22T03:49:26.196Z,64.38
2022-12-22T03:51:53.485Z,63.97
2022-12-22T03:54:25.070Z,63.65
2022-12-22T03:56:52.695Z,63.71
2022-12-22T03:59:20.205Z,63.19
2022-12-22T04:01:51.754Z,62.62
2022-12-22T04:04:20.843Z,62.51
2022-12-22T04:06:48.313Z,62.56
2022-12-22T04:09:14.949Z,63.42
2022-12-22T04:12:00.225Z,64.24
2022-12-22T04:14:33.526Z,64.11
2022-12-22T04:17:02.014Z,64.94
2022-12-22T04:19:28.565Z,65.28
2022-12-22T04:21:55.452Z,65.30
2022-12-22T04:24:22.404Z,65.50
2022-12-22T04:26:49.569Z,66.42
2022-12-22T04:29:16.939Z,64.59
2022-12-22T04:31:44.274Z,65.47
2022-12-22T04:34:11.336Z,66.72
2022-12-22T04:36:37.880Z,65.79
2022-12-22T04:39:04.435Z,65.66
2022-12-22T04:41:30.970Z,65.12
2022-12-22T04:43:57.507Z,64.27
2022-12-22T04:46:24.492Z,63.76
2022-12-22T04:48:54.640Z,64.20
2022-12-22T04:51:26.375Z,64.08
2022-12-22T04:53:52.981Z,64.64
2022-12-22T04:56:19.860Z,64.10
2022-12-22T04:58:46.381Z,65.37
2022-12-22T05:01:15.873Z,66.82
2022-12-22T05:03:42.728Z,66.02
2022-12-22T05:06:10.264Z,66.11
2022-12-22T05:08:37.235Z,66.45
2022-12-22T05:11:03.986Z,65.86
2022-12-22T05:13:31.709Z,65.68
2022-12-22T05:16:12.810Z,66.26
2022-12-22T05:18:41.304Z,66.00
2022-12-22T05:21:14.476Z,64.86
2022-12-22T05:23:42.353Z,64.87
2022-12-22T05:26:09.461Z,64.32
2022-12-22T05:28:36.476Z,63.86
2022-12-22T05:31:24.758Z,63.04
2022-12-22T05:33:51.656Z,63.61
2022-12-22T05:36:18.809Z,63.96
2022-12-22T05:38:45.690Z,63.72
2022-12-22T05:41:12.343Z,63.74
2022-12-22T05:43:39.543Z,63.89
2022-12-22T05:46:09.320Z,64.31
2022-12-22T05:48:38.954Z,64.87
2022-12-22T05:51:09.589Z,65.16
2022-12-22T05:53:37.133Z,64.62
2022-12-22T05:56:03.841Z,64.80
2022-12-22T05:58:30.392Z,64.77
2022-12-22T06:00:58.929Z,64.04
2022-12-22T06:03:26.705Z,63.27
2022-12-22T06:05:53.601Z,62.64
2022-12-22T06:08:20.721Z,62.33
2022-12-22T06:10:48.327Z,62.69
2022-12-22T06:13:15.016Z,63.47
2022-12-22T06:15:42.317Z,47.13
2022-12-22T06:18:08.919Z,53.83
2022-12-22T06:20:35.604Z,60.13
2022-12-22T06:23:02.201Z,60.12
2022-12-22T06:25:28.772Z,61.80
2022-12-22T06:27:55.305Z,62.05
2022-12-22T06:30:25.787Z,62.73
2022-12-22T06:32:55.872Z,62.83
2022-12-22T06:35:22.399Z,62.38
2022-12-22T06:37:48.937Z,64.28
2022-12-22T06:40:15.469Z,64.09
2022-12-22T06:43:07.850Z,63.25
2022-12-22T06:45:43.028Z,62.42
2022-12-22T06:48:11.069Z,62.09
2022-12-22T06:50:37.651Z,61.60
2022-12-22T06:53:05.026Z,61.02
2022-12-22T06:55:31.678Z,60.62
2022-12-22T06:57:58.307Z,61.27
2022-12-22T07:00:25.064Z,61.05
2022-12-22T07:02:51.825Z,60.90
2022-12-22T07:05:18.735Z,60.24
2022-12-22T07:07:45.447Z,59.59
2022-12-22T07:10:12.014Z,59.58
2022-12-22T07:12:38.606Z,58.98
2022-12-22T07:15:05.865Z,58.54
2022-12-22T07:17:32.451Z,59.11
2022-12-22T07:19:59.003Z,58.38
2022-12-22T07:22:29.806Z,58.60
2022-12-22T07:24:57.635Z,58.24
2022-12-22T07:27:24.243Z,58.13
2022-12-22T07:29:50.968Z,57.56
2022-12-22T07:32:17.958Z,57.55
2022-12-22T07:34:45.367Z,57.20
2022-12-22T07:37:13.541Z,57.54
2022-12-22T07:39:40.191Z,57.16
2022-12-22T07:42:25.125Z,57.03
2022-12-22T07:44:52.003Z,57.24
2022-12-22T07:47:18.515Z,57.43
2022-12-22T07:50:03.665Z,57.40
2022-12-22T07:52:30.187Z,57.54
2022-12-22T07:54:56.749Z,58.02
2022-12-22T07:57:23.485Z,57.50
2022-12-22T07:59:50.279Z,57.02
2022-12-22T08:02:16.987Z,57.01
2022-12-22T08:04:43.633Z,57.19
2022-12-22T08:07:10.283Z,57.25
2022-12-22T08:09:36.826Z,56.79
2022-12-22T08:12:03.483Z,56.96
2022-12-22T08:14:30.080Z,56.66
2022-12-22T08:16:58.340Z,56.46
2022-12-22T08:19:24.870Z,56.63
2022-12-22T08:21:53.247Z,56.68
2022-12-22T08:24:20.942Z,56.52
2022-12-22T08:26:51.439Z,56.59
2022-12-22T08:29:23.651Z,57.30
2022-12-22T08:31:50.585Z,57.48
2022-12-22T08:34:17.329Z,57.34
2022-12-22T08:36:49.054Z,57.72
2022-12-22T08:39:16.666Z,57.71
2022-12-22T08:41:52.436Z,58.00
2022-12-22T08:44:26.713Z,57.70
2022-12-22T08:46:56.348Z,57.30
2022-12-22T08:49:24.159Z,56.91
2022-12-22T08:51:51.150Z,57.16
2022-12-22T08:54:18.297Z,57.35
2022-12-22T08:56:45.405Z,56.63
2022-12-22T08:59:12.755Z,56.94
2022-12-22T09:01:44.161Z,56.80
2022-12-22T09:04:15.468Z,56.89
2022-12-22T09:06:42.049Z,56.69
2022-12-22T09:09:10.944Z,56.56
2022-12-22T09:11:39.695Z,56.60
2022-12-22T09:14:07.677Z,56.29
2022-12-22T09:16:35.554Z,56.67
2022-12-22T09:19:03.426Z,56.40
2022-12-22T09:21:30.701Z,56.31
2022-12-22T09:23:57.915Z,56.22
2022-12-22T09:26:26.089Z,56.26
2022-12-22T09:28:52.903Z,56.23
2022-12-22T09:31:21.562Z,56.08
2022-12-22T09:33:48.737Z,56.07
2022-12-22T09:36:18.744Z,56.11
2022-12-22T09:38:45.540Z,56.38
2022-12-22T09:41:20.120Z,56.52
2022-12-22T09:43:47.505Z,56.44
2022-12-22T09:46:31.617Z,56.78
2022-12-22T09:48:58.887Z,56.65
2022-12-22T09:51:27.422Z,56.03
2022-12-22T09:53:58.187Z,56.11
2022-12-22T09:56:27.144Z,55.96
2022-12-22T09:58:53.688Z,56.07
2022-12-22T10:01:50.148Z,55.86
2022-12-22T10:04:58.365Z,55.90
2022-12-22T10:07:34.564Z,55.61
2022-12-22T10:10:27.346Z,55.40
2022-12-22T10:13:00.096Z,55.46
2022-12-22T10:15:33.738Z,55.68
2022-12-22T10:18:11.071Z,55.53
2022-12-22T10:20:39.632Z,55.72
2022-12-22T10:23:26.825Z,55.65
2022-12-22T10:29:01.154Z,56.33
2022-12-22T10:31:34.020Z,57.20
2022-12-22T10:34:16.330Z,57.46
2022-12-22T10:36:50.822Z,56.96
2022-12-22T10:39:38.516Z,57.07
2022-12-22T10:42:13.565Z,57.76
2022-12-22T10:44:45.551Z,58.38
2022-12-22T10:47:17.942Z,58.20
2022-12-22T10:49:48.851Z,57.95
2022-12-22T10:52:29.436Z,58.85
2022-12-22T10:55:28.558Z,58.54
2022-12-22T10:58:10.387Z,59.41
2022-12-22T11:00:41.107Z,59.32
2022-12-22T11:03:19.008Z,59.14
2022-12-22T11:05:51.497Z,59.39
2022-12-22T11:08:20.275Z,58.67
2022-12-22T11:10:56.330Z,58.20
2022-12-22T11:13:58.674Z,59.18
2022-12-22T11:16:58.958Z,58.67
2022-12-22T11:19:45.281Z,58.41
2022-12-22T11:22:27.712Z,58.90
2022-12-22T11:25:12.934Z,58.72
2022-12-22T11:28:03.740Z,58.77
2022-12-22T11:30:56.613Z,58.69
2022-12-22T11:33:40.070Z,58.58
2022-12-22T11:36:18.293Z,58.20
2022-12-22T11:38:53.935Z,58.01
2022-12-22T11:41:34.556Z,57.90
2022-12-22T11:44:38.007Z,59.44
2022-12-22T11:47:22.983Z,59.47
2022-12-22T11:51:02.092Z,59.03
2022-12-22T11:53:28.521Z,60.06
2022-12-22T11:56:14.787Z,59.47
2022-12-22T11:59:05.795Z,60.33
2022-12-22T12:01:48.063Z,61.92
2022-12-22T12:04:30.855Z,62.52
2022-12-22T12:07:06.099Z,63.52
2022-12-22T12:10:04.018Z,62.33
2022-12-22T12:12:46.720Z,60.50
2022-12-22T12:15:27.559Z,59.74
2022-12-22T12:18:03.977Z,59.28
2022-12-22T12:20:39.069Z,58.88
2022-12-22T12:23:40.860Z,59.01
2022-12-22T12:26:24.482Z,58.06
2022-12-22T12:29:24.966Z,57.55
2022-12-22T12:32:02.918Z,57.54
2022-12-22T12:34:39.917Z,57.66
2022-12-22T12:37:27.271Z,58.58
2022-12-22T12:40:02.834Z,58.65
2022-12-22T12:42:36.862Z,58.62
2022-12-22T12:45:05.349Z,58.76
2022-12-22T12:47:34.581Z,58.50
2022-12-22T12:50:34.442Z,58.10
2022-12-22T12:53:07.529Z,58.22
2022-12-22T12:56:02.108Z,59.42
2022-12-22T12:58:37.703Z,59.78
2022-12-22T13:01:12.924Z,59.84
2022-12-22T13:06:50.516Z,58.24
2022-12-22T13:12:33.583Z,59.36
2022-12-22T13:15:01.702Z,58.25
2022-12-22T13:17:47.814Z,57.88
2022-12-22T13:20:18.291Z,57.78
2022-12-22T13:22:45.728Z,56.95
2022-12-22T13:25:16.606Z,57.11
2022-12-22T13:27:43.460Z,58.10
2022-12-22T13:30:16.587Z,58.22
2022-12-22T13:32:46.345Z,57.48
2022-12-22T13:35:33.980Z,56.80
2022-12-22T13:38:02.628Z,57.33
2022-12-22T13:40:31.947Z,56.57
2022-12-22T13:43:05.307Z,57.47
2022-12-22T13:45:37.099Z,56.77
2022-12-22T13:48:13.807Z,57.96
2022-12-22T13:50:50.909Z,57.00
2022-12-22T13:56:20.571Z,56.19
2022-12-22T13:58:53.514Z,56.00
2022-12-22T14:01:20.292Z,56.42
2022-12-22T14:04:01.885Z,56.05
2022-12-22T14:06:34.066Z,56.09
2022-12-22T14:09:18.490Z,55.73
2022-12-22T14:12:06.303Z,55.20
2022-12-22T14:14:40.843Z,54.65
2022-12-22T14:17:26.061Z,54.52
2022-12-22T14:19:58.380Z,54.83
2022-12-22T14:22:33.733Z,54.56
2022-12-22T14:25:09.666Z,55.36
2022-12-22T14:27:40.998Z,55.59
2022-12-22T14:30:23.359Z,55.72
2022-12-22T14:32:56.245Z,56.20
2022-12-22T14:35:22.969Z,55.20
2022-12-22T14:38:02.267Z,55.17
2022-12-22T14:40:30.984Z,54.66
2022-12-22T14:42:59.736Z,54.80
2022-12-22T14:45:26.780Z,54.80
2022-12-22T14:47:55.111Z,55.18
2022-12-22T14:50:25.563Z,55.65
2022-12-22T14:53:01.127Z,55.20
2022-12-22T14:55:39.173Z,55.25
2022-12-22T14:58:25.999Z,55.57
2022-12-22T15:01:31.460Z,56.69
2022-12-22T15:04:04.302Z,55.68
2022-12-22T15:06:34.987Z,55.88
2022-12-22T15:09:07.206Z,55.51
2022-12-22T15:11:36.109Z,55.02
2022-12-22T15:14:04.576Z,54.63
2022-12-22T15:16:31.349Z,54.83
2022-12-22T15:18:58.013Z,54.48
2022-12-22T15:21:24.797Z,54.39
2022-12-22T15:23:51.714Z,54.59
2022-12-22T15:26:18.231Z,54.88
2022-12-22T15:28:44.815Z,56.23
2022-12-22T15:31:16.938Z,55.17
2022-12-22T15:33:44.902Z,56.08
2022-12-22T15:36:13.789Z,56.55
2022-12-22T15:38:41.181Z,56.38
2022-12-22T15:41:08.078Z,57.15
2022-12-22T15:43:57.180Z,57.02
2022-12-22T15:46:25.296Z,56.20
2022-12-22T15:48:52.434Z,56.61
2022-12-22T15:51:28.184Z,56.00
2022-12-22T15:53:57.162Z,56.57
2022-12-22T15:56:26.473Z,56.53
2022-12-22T15:58:53.537Z,56.40
2022-12-22T16:01:20.270Z,55.70
2022-12-22T16:03:47.052Z,54.89
2022-12-22T16:06:15.642Z,55.02
2022-12-22T16:08:49.905Z,54.67
2022-12-22T16:11:17.508Z,54.81
2022-12-22T16:13:45.217Z,54.67
2022-12-22T16:16:12.210Z,54.32
2022-12-22T16:18:38.901Z,54.24
2022-12-22T16:21:15.140Z,54.33
2022-12-22T16:23:44.043Z,54.39
2022-12-22T16:26:16.848Z,55.19
2022-12-22T16:28:43.802Z,55.33
2022-12-22T16:31:19.203Z,54.78
2022-12-22T16:33:45.841Z,55.02
2022-12-22T16:36:13.549Z,54.79
2022-12-22T16:38:41.273Z,54.64
2022-12-22T16:41:19.231Z,54.24
2022-12-22T16:46:30.507Z,54.75
2022-12-22T16:49:00.894Z,57.02
2022-12-22T16:51:37.235Z,56.34
2022-12-22T16:54:04.458Z,55.93
2022-12-22T16:56:31.739Z,55.55
2022-12-22T16:58:58.947Z,55.36
2022-12-22T17:01:39.909Z,55.60
2022-12-22T17:04:13.950Z,55.28
2022-12-22T17:06:41.667Z,55.78
2022-12-22T17:09:15.958Z,55.40
2022-12-22T17:11:44.787Z,56.06
2022-12-22T17:14:23.056Z,55.58
2022-12-22T17:16:50.519Z,56.24
2022-12-22T17:19:18.374Z,55.96
2022-12-22T17:21:45.846Z,55.80
2022-12-22T17:24:18.139Z,55.29
2022-12-22T17:26:47.412Z,55.22
2022-12-22T17:29:20.152Z,55.61
2022-12-22T17:31:47.556Z,56.00
2022-12-22T17:34:18.649Z,55.70
2022-12-22T17:36:47.810Z,56.48
2022-12-22T17:39:18.544Z,55.88
2022-12-22T17:41:49.066Z,55.46
2022-12-22T17:44:23.616Z,55.27
2022-12-22T17:46:50.194Z,55.50
2022-12-22T17:49:20.104Z,56.21
2022-12-22T17:51:47.131Z,55.79
2022-12-22T17:54:22.335Z,55.99
2022-12-22T17:56:49.245Z,55.79
2022-12-22T17:59:16.172Z,55.47
2022-12-22T18:01:42.912Z,55.88
2022-12-22T18:04:10.390Z,56.58
2022-12-22T18:06:39.420Z,56.24
2022-12-22T18:09:07.393Z,56.44
2022-12-22T18:11:34.452Z,56.64
2022-12-22T18:14:01.426Z,56.48
2022-12-22T18:16:29.558Z,57.84
2022-12-22T18:18:56.629Z,57.02
2022-12-22T18:21:24.878Z,57.51
2022-12-22T18:23:52.750Z,58.74
2022-12-22T18:26:24.120Z,58.39
2022-12-22T18:28:51.546Z,58.64
2022-12-22T18:31:19.226Z,57.84
2022-12-22T18:33:45.819Z,57.97
2022-12-22T18:36:29.679Z,57.98
2022-12-22T18:38:57.503Z,57.33
2022-12-22T18:41:26.127Z,56.79
2022-12-22T18:43:53.058Z,56.74
2022-12-22T18:46:19.847Z,56.01
2022-12-22T18:48:47.706Z,56.03
2022-12-22T18:51:23.017Z,55.49
2022-12-22T18:53:54.132Z,56.23
2022-12-22T18:56:21.771Z,56.22
2022-12-22T18:58:49.179Z,55.85
2022-12-22T19:01:24.628Z,55.92
2022-12-22T19:03:54.054Z,55.60
2022-12-22T19:06:22.235Z,55.83
2022-12-22T19:08:49.963Z,55.53
2022-12-22T19:11:21.261Z,55.40
2022-12-22T19:13:51.337Z,55.96
2022-12-22T19:16:22.896Z,56.78
2022-12-22T19:18:49.920Z,56.88
2022-12-22T19:21:17.853Z,56.57
2022-12-22T19:23:44.937Z,57.38
2022-12-22T19:26:24.247Z,57.37
2022-12-22T19:29:03.189Z,57.66
2022-12-22T19:31:33.508Z,57.24
2022-12-22T19:34:03.650Z,56.88
2022-12-22T19:36:31.289Z,56.53
2022-12-22T19:39:03.856Z,56.16
2022-12-22T19:41:38.537Z,56.24
2022-12-22T19:44:05.710Z,56.09
2022-12-22T19:46:34.276Z,55.69
2022-12-22T19:49:01.077Z,55.49
2022-12-22T19:51:27.904Z,55.35
2022-12-22T19:53:54.461Z,55.61
2022-12-22T19:56:27.165Z,55.36
2022-12-22T19:58:55.608Z,55.40
2022-12-22T20:01:23.136Z,55.45
2022-12-22T20:03:49.781Z,55.93
2022-12-22T20:06:17.652Z,55.58
2022-12-22T20:08:45.203Z,55.81
2022-12-22T20:11:16.843Z,56.50
2022-12-22T20:13:44.649Z,57.02
2022-12-22T20:16:13.733Z,58.27
2022-12-22T20:18:41.157Z,58.70
2022-12-22T20:21:21.412Z,58.49
2022-12-22T20:23:48.191Z,58.65
2022-12-22T20:26:19.725Z,58.39
2022-12-22T20:28:46.732Z,57.66
2022-12-22T20:31:15.892Z,58.80
2022-12-22T20:33:42.908Z,58.32
2022-12-22T20:36:20.161Z,58.28
2022-12-22T20:38:47.690Z,58.82
2022-12-22T20:41:14.469Z,59.67
2022-12-22T20:43:41.755Z,60.10
2022-12-22T20:46:18.298Z,59.65
2022-12-22T20:48:53.737Z,60.37
2022-12-22T20:51:21.294Z,60.33
2022-12-22T20:53:48.422Z,60.37
2022-12-22T20:56:29.503Z,60.44
2022-12-22T20:58:57.188Z,60.51
2022-12-22T21:01:26.129Z,61.01
2022-12-22T21:03:53.235Z,60.54
2022-12-22T21:06:19.754Z,60.36
2022-12-22T21:08:46.647Z,60.70
2022-12-22T21:11:13.167Z,60.79
2022-12-22T21:13:39.746Z,60.12
2022-12-22T21:16:12.742Z,60.51
2022-12-22T21:18:39.331Z,60.53
2022-12-22T21:21:06.174Z,61.34
2022-12-22T21:23:32.781Z,60.88
2022-12-22T21:25:59.833Z,60.35
2022-12-22T21:28:32.486Z,61.56
2022-12-22T21:30:59.979Z,62.32
2022-12-22T21:33:26.843Z,62.37
2022-12-22T21:35:55.585Z,61.97
2022-12-22T21:38:25.129Z,61.95
2022-12-22T21:40:51.664Z,60.89
2022-12-22T21:43:18.200Z,60.23
2022-12-22T21:45:45.052Z,59.85
2022-12-22T21:48:14.075Z,59.75
2022-12-22T21:50:41.037Z,59.68
2022-12-22T21:53:08.165Z,59.87
2022-12-22T21:55:37.886Z,59.59
2022-12-22T21:58:06.253Z,59.90
2022-12-22T22:00:34.290Z,60.45
2022-12-22T22:03:03.192Z,60.40
2022-12-22T22:05:35.757Z,60.86
2022-12-22T22:08:04.231Z,61.30
2022-12-22T22:10:33.738Z,61.20
2022-12-22T22:13:00.968Z,60.65
2022-12-22T22:15:29.374Z,60.35
2022-12-22T22:17:59.776Z,59.91
2022-12-22T22:20:32.239Z,61.01
2022-12-22T22:22:59.903Z,60.13
2022-12-22T22:25:26.871Z,60.84
2022-12-22T22:27:53.505Z,60.62
2022-12-22T22:30:22.724Z,60.89
2022-12-22T22:32:49.596Z,60.91
2022-12-22T22:35:18.370Z,60.82
2022-12-22T22:37:46.307Z,60.46
2022-12-22T22:40:14.651Z,59.49
2022-12-22T22:42:41.271Z,59.54
2022-12-22T22:45:08.903Z,58.97
2022-12-22T22:47:35.414Z,58.82
2022-12-22T22:50:06.822Z,58.64
2022-12-22T22:52:34.286Z,58.25
2022-12-22T22:55:01.515Z,57.59
2022-12-22T22:57:28.089Z,57.42
2022-12-22T22:59:54.612Z,57.34
2022-12-22T23:02:21.334Z,56.85
2022-12-22T23:04:48.217Z,56.80
2022-12-22T23:07:14.766Z,56.59
2022-12-22T23:09:41.433Z,56.63
2022-12-22T23:12:07.978Z,56.28
2022-12-22T23:14:34.811Z,56.48
2022-12-22T23:17:01.329Z,56.31
2022-12-22T23:19:28.049Z,55.88
2022-12-22T23:21:54.581Z,55.87
2022-12-22T23:24:21.221Z,55.88
2022-12-22T23:26:48.266Z,55.96
2022-12-22T23:29:14.840Z,56.09
2022-12-22T23:31:41.477Z,56.71
2022-12-22T23:34:10.854Z,57.53
2022-12-22T23:36:37.662Z,58.10
2022-12-22T23:39:04.771Z,57.82
2022-12-22T23:41:31.383Z,58.84
2022-12-22T23:43:57.900Z,58.00
2022-12-22T23:46:24.804Z,58.44
2022-12-22T23:48:53.349Z,58.43
2022-12-22T23:51:20.932Z,57.76
2022-12-22T23:53:47.703Z,57.60
2022-12-22T23:56:14.567Z,57.53
2022-12-22T23:58:41.580Z,57.21
